Belleville, Wisconsin
Current Conditions -  °F | °C
As of 10:55 AM on Monday 22 Dec 2014 (Local Time) from KEFT Reporting Station
Overcast Overcast  
Wind Chill: 26°   Ceiling: 4900
Heat Index: 34°   Visibility: 7mi
Dew Point: 32°   Wind: 10mph
Humidity: 93%   Direction: 110°ESE
Pressure: 29.78"   Gusts: 17mph
Location:  42.86°N, 89.54°W
Report Text: KEFT 221655Z AUTO 11009G15KT 7SM OVC049 01/00 A2978 RMK AO2
Loading
Personal Weather Stations






























Interactive Weather Map New forecast layout! Learn more

10-Day Weather Forecast

Advertisements
Track Severe Weather on mobile